Туризм
Свали.ру
Погода в мире
ИА "Метеоновости"
Информеры
для сайтов
Туры
поиск и заказ
Авиабилеты
регулярные и чартерные рейсы
 
    На главную   Табло рисков задержки   Авиабилеты   Расписание авиарейсов

Cherry Capital Airport    ICAO или ID: KTVC, IATA: TVC
Небольшой аэропорт, регулярные рейсы
добавить в избранное


широта:
долгота:
высота над уровнем моря:
44°44'
-85°35'

190 м
Страна: США (United States)
погода
туры
отели
аэропорты
Риск задержки рейсов из-за погоды
Факт:  
Прогноз:  
 Карта
 



Текущее время 14:30 UTC 08-06-2023
Солнце: восход 09:57, заход 01:26, долгота дня 15:29

  18:00 (на 24ч) 06:00 (на 24ч) [12:00 (на 24ч)]

Прогноз погоды на 24 ч. с 12:00 08-06-2023 по 12:00 09-06-2023 UTC


Исходная телеграмма в коде TAF
KTVC 081136Z 0812/0912 36007KT P6SM FEW250
FM081800 01010G16KT P6SM FEW070 SCT250
FM090200 35006KT P6SM FEW250
FM090900 VRB03KT P6SM FEW250

Раскодировка телеграмм производится в автоматическом режиме, в телеграммах могут содержаться ошибки, приводящие к их неправильной интерпретации.

Предупреждение: данные на этом сайте не могут быть использованы для планирования полётов и предоставляются только в информационных целях.
Найти аэропорт
По названию или городу
только регулярные рейсы

Избранные аэропорты
Список пуст



© 2008 Данио-Пресс. Все права защищены.
Использование материалов сайта возможно только с согласия администрации сервера.
По вопросам рекламы и размещения информации обращаться сюда.


 Рейтинг@Mail.ru  Rambler's Top100